Tiempo atmosférico en la estación meteorológica de El Paso, Santa Cruz de Tenerife (844 m.)



Fecha
DESCASC
Temp. máxima en grados centígrados (hora)
DESCASC
Temp. mínima en grados centígrados (hora)
DESCASC
Temp. media en grados centígrados
DESCASC
Racha de viento máxima en m/sg (hora)
DESCASC
Velocidad máxima media en intervalos de 10 minutos(hora)
DESCASC
Precipitaciones diarias en mm
DESCASC
Precipitaciones de 00:00 a 06:00 en mm
DESCASC
Precipitaciones de 06:00 a 12:00 en mm
DESCASC
Precipitaciones de 12:00 a 18:00 en mm
DESCASC
Precipitaciones de 18:00 a 24:00 en mm
DESCASC
15-08-2019 28.8 (15:00) 18.2 (04:10) 23.5 12.78 (13:50) 6.67 (13:00) 0 0 0 0 0
14-08-2019 25.9 (14:20) 14.2 (00:00) 20 10 (14:00) 6.11 (14:00) 0 0 0 0 0
13-08-2019 27.5 (12:50) 18.1 (00:00) 22.8 16.39 (03:30) 8.33 (00:40) 0 0 0 0 0
12-08-2019 25.9 (18:30) 18.3 (00:00) 22.1 23.89 (02:30) 12.5 (01:40) 0 0 0 0 0
11-08-2019 25.2 (12:40) 18.5 (00:00) 21.9 21.67 (23:50) 12.22 (23:50) 0 0 0 0 0
10-08-2019 28.1 (11:20) 20.1 (00:00) 24.1 7.22 (14:30) 4.17 (18:30) 0 0 0 0 0
09-08-2019 31.5 (11:30) 17.5 (00:00) 24.5 6.11 (16:20) 3.89 (16:20) 0 0 0 0 0
08-08-2019 27.5 (15:50) 14.4 (00:00) 20.9 5.83 (14:50) 3.89 (14:50) 0 0 0 0 0
07-08-2019 24.1 (16:50) 12.6 (00:00) 18.4 12.5 (01:20) 6.67 (01:30) 0 0 0 0 0
06-08-2019 23.6 (12:30) 14.9 (00:00) 19.3 12.78 (02:10) 7.22 (02:10) 0 0 0 0 0
05-08-2019 24.1 (15:10) 16.3 (00:00) 20.2 14.72 (17:10) 9.17 (16:10) 0 0 0 0 0
04-08-2019 22.9 (14:40) 12.7 (00:00) 17.8 14.72 (21:40) 7.78 (17:30) 0 0 0 0 0
03-08-2019 23.2 (16:30) 12.8 (00:00) 18 10 (18:30) 5.83 (19:00) 0 0 0 0 0
02-08-2019 23.4 (12:50) 11.9 (00:00) 17.6 9.17 (12:20) 5.28 (12:00) 0 0 0 0 0
01-08-2019 23.4 (16:40) 11.4 (00:00) 17.4 10.56 (16:40) 6.39 (13:20) 0 0 0 0 0
31-07-2019 20.6 (14:50) 13.4 (00:00) 17 13.89 (05:50) 7.78 (13:50) 0 0 0 0 0
30-07-2019 21.2 (13:20) 15.3 (00:00) 18.3 18.89 (01:10) 11.94 (00:20) 0 0 0 0 0
29-07-2019 23.7 (14:40) 15 (00:00) 19.4 18.89 (22:40) 11.94 (17:50) 0 0 0 0 0
28-07-2019 26.6 (12:10) 18.3 (00:00) 22.4 13.06 (15:00) 8.33 (15:00) 0 0 0 0 0
27-07-2019 27.4 (10:10) 17 (00:00) 22.2 13.33 (00:20) 7.78 (00:10) 0 0 0 0 0
26-07-2019 30.3 (14:20) 17.6 (00:00) 23.9 15 (23:30) 9.17 (15:30) 0 0 0 0 0
25-07-2019 28.6 (12:40) 16.9 (00:00) 22.8 9.44 (10:50) 5 (13:00) 0 0 0 0 0
24-07-2019 25.8 (15:50) 18 (00:00) 21.9 15 (00:40) 9.17 (02:20) 0 0 0 0 0
23-07-2019 26.5 (10:50) 15 (00:00) 20.8 14.17 (23:00) 9.17 (23:00) 0 0 0 0 0
22-07-2019 27.6 (10:20) 16.4 (00:00) 22 6.39 (15:30) 4.44 (16:30) 0 0 0 0 0
21-07-2019 27.8 (11:10) 15.3 (00:00) 21.5 15.56 (00:50) 9.17 (00:50) 0 0 0 0 0
20-07-2019 21.7 (16:20) 15.2 (00:00) 18.5 17.78 (10:30) 11.11 (11:40) 0 0 0 0 0
19-07-2019 23.9 (16:10) 11.8 (00:00) 17.8 15.83 (23:30) 9.17 (23:40) 0 0 0 0 0

Gráficas

Temp. máximas Temp. mínimas Temp. medias Precipitaciones Rachas de viento máximas Velocidades máximas media en intervalos de 10 minutos

Datos horarios

Fecha y hora oficial Temperatura (ºC) Velocidad del viento (km/h) Dirección del viento Racha (km/h) Dirección de racha Precipitación (mm) Presión (hPa) Tendencia (hPa) Humedad (%)
2019-08-17 23:00:00 30.4 21 Este 35 Este 0 -- -- 18
2019-08-17 22:00:00 30.7 20 Este 36 Sudeste 0 -- -- 18
2019-08-17 21:00:00 33.3 19 Este 36 Este 0 -- -- 15
2019-08-17 20:00:00 34.4 19 Este 41 Este 0 -- -- 15
2019-08-17 19:00:00 36.3 24 Este 38 Nordeste 0 -- -- 14
2019-08-17 18:00:00 37.2 22 Este 38 Este 0 -- -- 15
2019-08-17 17:00:00 37.5 22 Este 39 Este 0 -- -- 15
2019-08-17 16:00:00 37.6 24 Este 40 Este 0 -- -- 15
2019-08-17 15:00:00 37.7 22 Este 49 Nordeste 0 -- -- 15
2019-08-17 14:00:00 37.1 24 Este 40 Este 0 -- -- 16
2019-08-17 13:00:00 36.7 23 Este 44 Este 0 -- -- 16
2019-08-17 12:00:00 33.2 24 Este 44 Este 0 -- -- 21
2019-08-17 11:00:00 33.6 26 Este 44 Este 0 -- -- 18
2019-08-17 10:00:00 29.6 30 Este 42 Sudeste 0 -- -- 31
2019-08-17 09:00:00 27.2 27 Este 47 Este 0 -- -- 35
2019-08-17 08:00:00 25.8 32 Este 52 Este 0 -- -- 37
2019-08-17 07:00:00 26.4 26 Este 46 Sudeste 0 -- -- 34
2019-08-17 06:00:00 26.2 21 Este 45 Este 0 -- -- 34
2019-08-17 05:00:00 26.5 23 Este 44 Sudeste 0 -- -- 33
2019-08-17 04:00:00 27 27 Este 50 Este 0 -- -- 26
2019-08-17 03:00:00 27.8 26 Este 44 Este 0 -- -- 20
2019-08-17 02:00:00 29.3 24 Este 43 Este 0 -- -- 14
2019-08-17 01:00:00 29.2 22 Este 43 Sudeste 0 -- -- 12
2019-08-17 00:00:00 28.7 21 Este 39 Este 0 -- -- 15
2019-08-16 23:00:00 28.7 19 Este 36 Este 0 -- -- 18
2019-08-16 22:00:00 28 18 Sudeste 34 Sudeste 0 -- -- 23
2019-08-16 21:00:00 28.3 23 Sudeste 37 Sudeste 0 -- -- 25
2019-08-16 20:00:00 29.4 23 Sudeste 32 Sudeste 0 -- -- 26
2019-08-16 19:00:00 33.1 10 Oeste 33 Este 0 -- -- 33
2019-08-16 18:00:00 31.5 20 Sudeste 38 Este 0 -- -- 29
2019-08-16 17:00:00 32.3 23 Este 35 Este 0 -- -- 26
2019-08-16 16:00:00 31.8 23 Este 45 Este 0 -- -- 24
2019-08-16 15:00:00 30.6 28 Este 47 Este 0 -- -- 27
2019-08-16 14:00:00 30.6 26 Este 50 Este 0 -- -- 28
2019-08-16 13:00:00 30.2 27 Este 53 Este 0 -- -- 30
2019-08-16 12:00:00 30.2 28 Este 48 Sudeste 0 -- -- 24
2019-08-16 11:00:00 29.4 30 Este 50 Sudeste 0 -- -- 23
2019-08-16 10:00:00 29 27 Este 52 Este 0 -- -- 21
2019-08-16 09:00:00 26 23 Este 39 Este 0 -- -- 28
2019-08-16 08:00:00 24.9 10 Este 25 Este 0 -- -- 18
2019-08-16 07:00:00 24.6 13 Sudeste 27 Sudeste 0 -- -- 21
2019-08-16 06:00:00 24.9 12 Sudeste 25 Sudeste 0 -- -- 22
2019-08-16 05:00:00 24.8 15 Este 33 Sudeste 0 -- -- 22
2019-08-16 04:00:00 24.2 12 Este 28 Este 0 -- -- 24
2019-08-16 03:00:00 23.8 13 Este 33 Este 0 -- -- 28
2019-08-16 02:00:00 23.3 14 Este 30 Este 0 -- -- 33
2019-08-16 01:00:00 23.2 13 Este 27 Sudeste 0 -- -- 34
2019-08-16 00:00:00 23.1 15 Sudeste 37 Sudeste 0 -- -- 36
2019-08-15 23:00:00 23.1 18 Sudeste 32 Sudeste 0 -- -- 34
2019-08-15 22:00:00 22.2 5 Este 10 Norte 0 -- -- 44
2019-08-15 21:00:00 24.1 2 Oeste 12 Oeste 0 -- -- 46
2019-08-15 20:00:00 26.1 8 Oeste 24 Este 0 -- -- 55
2019-08-15 19:00:00 27.5 12 Este 40 Este 0 -- -- 45
2019-08-15 18:00:00 26.8 10 Sudeste 26 Oeste 0 -- -- 46
2019-08-15 17:00:00 27.9 13 Nordeste 34 Nordeste 0 -- -- 43
2019-08-15 16:00:00 28.7 11 Oeste 40 Nordeste 0 -- -- 39
2019-08-15 15:00:00 28.8 13 Noroeste 39 Este 0 -- -- 38
2019-08-15 14:00:00 28.7 11 Norte 46 Este 0 -- -- 32
2019-08-15 13:00:00 27.3 24 Este 44 Este 0 -- -- 33
2019-08-15 12:00:00 27.2 18 Este 45 Este 0 -- -- 27
2019-08-15 11:00:00 28.1 10 Oeste 27 Este 0 -- -- 41
2019-08-15 10:00:00 26.2 12 Nordeste 28 Nordeste 0 -- -- 17
2019-08-15 09:00:00 22.7 8 Este 17 Este 0 -- -- 18
2019-08-15 08:00:00 20.8 6 Este 16 Nordeste 0 -- -- 23
2019-08-15 07:00:00 20.7 6 Este 18 Este 0 -- -- 19
2019-08-15 06:00:00 20.7 10 Este 22 Nordeste 0 -- -- 16
2019-08-15 05:00:00 19.4 7 Este 22 Este 0 -- -- 23
2019-08-15 04:00:00 18.4 3 Este 13 Este 0 -- -- 25
2019-08-15 03:00:00 19.2 6 Este 21 Nordeste 0 -- -- 24
2019-08-15 02:00:00 18.8 6 Este 12 Este 0 -- -- 24
2019-08-15 01:00:00 18.7 6 Este 19 Este 0 -- -- 26
2019-08-15 00:00:00 18.5 5 Este 11 Este 0 -- -- 30
2019-08-14 23:00:00 19.5 3 Este 19 Este 0 -- -- 35
2019-08-14 22:00:00 20.7 8 Nordeste 23 Este 0 -- -- 33
2019-08-14 21:00:00 20.7 5 Noroeste 12 Oeste 0 -- -- 72
2019-08-14 20:00:00 23 8 Oeste 18 Oeste 0 -- -- 64
2019-08-14 19:00:00 24.2 14 Oeste 32 Sudoeste 0 -- -- 58
2019-08-14 18:00:00 24 13 Oeste 26 Oeste 0 -- -- 57
2019-08-14 17:00:00 24.2 11 Oeste 27 Sudoeste 0 -- -- 57
2019-08-14 16:00:00 23.7 13 Oeste 28 Oeste 0 -- -- 60
2019-08-14 15:00:00 23.8 18 Oeste 29 Oeste 0 -- -- 58
2019-08-14 14:00:00 25.1 22 Sudeste 36 Sudeste 0 -- -- 42
2019-08-14 13:00:00 24 21 Este 35 Este 0 -- -- 46
2019-08-14 12:00:00 25 12 Oeste 23 Sudoeste 0 -- -- 50
2019-08-14 11:00:00 23.2 12 Oeste 19 Noroeste 0 -- -- 53
2019-08-14 10:00:00 22.6 5 Oeste 11 Oeste 0 -- -- 44
2019-08-14 09:00:00 17.5 4 Noroeste 12 Este 0 -- -- 56
2019-08-14 08:00:00 15 0 Calma 10 Este 0 -- -- 49
2019-08-14 07:00:00 14.3 0 Calma 7 Este 0 -- -- 56
2019-08-14 06:00:00 15.5 4 Este 8 Este 0 -- -- 47
2019-08-14 05:00:00 17.2 2 Sur 17 Sudeste 0 -- -- 43
2019-08-14 04:00:00 19.2 14 Este 28 Este 0 -- -- 23
2019-08-14 03:00:00 19.6 9 Este 25 Este 0 -- -- 20
2019-08-14 02:00:00 19.3 14 Sudeste 28 Sudeste 0 -- -- 21
2019-08-14 01:00:00 18.3 3 Sur 15 Este 0 -- -- 54
2019-08-14 00:00:00 18.9 6 Oeste 32 Este 0 -- -- 66
2019-08-13 23:00:00 19.5 6 Oeste 37 Sudeste 0 -- -- 70
2019-08-13 22:00:00 19.4 3 Noroeste 14 Este 0 -- -- 72
2019-08-13 21:00:00 20.2 6 Oeste 41 Este 0 -- -- 73
2019-08-13 20:00:00 20 24 Este 42 Este 0 -- -- 61
2019-08-13 19:00:00 23.4 21 Este 39 Sudeste 0 -- -- 58
2019-08-13 18:00:00 24.9 13 Este 34 Este 0 -- -- 59
2019-08-13 17:00:00 25 14 Nordeste 45 Este 0 -- -- 61
2019-08-13 16:00:00 24.5 22 Este 45 Este 0 -- -- 56
2019-08-13 15:00:00 24.3 26 Este 46 Este 0 -- -- 58
2019-08-13 14:00:00 25.1 24 Este 45 Este 0 -- -- 55
2019-08-13 13:00:00 27.3 11 Oeste 41 Este 0 -- -- 50
2019-08-13 12:00:00 26.8 13 Sur 41 Este 0 -- -- 45
2019-08-13 11:00:00 24.5 21 Nordeste 51 Este 0 -- -- 43
2019-08-13 10:00:00 24.3 28 Este 54 Este 0 -- -- 25
2019-08-13 09:00:00 23.2 26 Este 55 Este 0 -- -- 21
2019-08-13 08:00:00 22.5 25 Este 45 Este 0 -- -- 17
2019-08-13 07:00:00 22.1 18 Este 48 Este 0 -- -- 16
2019-08-13 06:00:00 21.9 20 Este 51 Este 0 -- -- 17
2019-08-13 05:00:00 21.7 23 Este 51 Este 0 -- -- 15
2019-08-13 04:00:00 21.3 27 Este 59 Este 0 -- -- 18
2019-08-13 03:00:00 21.8 24 Este 46 Este 0 -- -- 21
2019-08-13 02:00:00 20.9 26 Este 48 Este 0 -- -- 22
2019-08-13 01:00:00 21.2 28 Este 48 Este 0 -- -- 25
2019-08-13 00:00:00 20.9 29 Este 49 Sudeste 0 -- -- 24
2019-08-12 23:00:00 21.3 27 Este 46 Sudeste 0 -- -- 24
2019-08-12 22:00:00 21.3 26 Sudeste 46 Este 0 -- -- 23
2019-08-12 21:00:00 22.3 27 Este 51 Este 0 -- -- 22
2019-08-12 20:00:00 24.3 17 Este 47 Este 0 -- -- 24
2019-08-12 19:00:00 25.8 15 Este 42 Este 0 -- -- 27
2019-08-12 18:00:00 25.6 22 Este 54 Este 0 -- -- 43
2019-08-12 17:00:00 24.3 34 Este 62 Este 0 -- -- 40
2019-08-12 16:00:00 23.7 33 Sudeste 59 Este 0 -- -- 52
2019-08-12 15:00:00 22.4 34 Este 55 Sudeste 0 -- -- 68
2019-08-12 14:00:00 22.8 33 Este 57 Sudeste 0 -- -- 65
2019-08-12 13:00:00 21.9 36 Este 77 Este 0 -- -- 67
2019-08-12 12:00:00 21.8 34 Este 63 Sudeste 0 -- -- 67
2019-08-12 11:00:00 20.9 32 Este 60 Este 0 -- -- 68
2019-08-12 10:00:00 19.8 31 Este 51 Este 0 -- -- 70
2019-08-12 09:00:00 19.7 32 Este 55 Este 0 -- -- 62
2019-08-12 08:00:00 20.4 27 Este 55 Este 0 -- -- 52
2019-08-12 07:00:00 18.9 28 Este 60 Este 0 -- -- 63
2019-08-12 06:00:00 19.5 32 Este 54 Este 0 -- -- 57
2019-08-12 05:00:00 18.3 32 Este 67 Este 0 -- -- 66
2019-08-12 04:00:00 18.3 35 Este 65 Este 0 -- -- 65
2019-08-12 03:00:00 19.2 37 Este 86 Este 0 -- -- 55
2019-08-12 02:00:00 20 42 Este 85 Este 0 -- -- 40
2019-08-12 01:00:00 21.6 34 Este 78 Este 0 -- -- 33
2019-08-12 00:00:00 22.5 41 Este 78 Este 0 -- -- 34
2019-08-11 23:00:00 22.7 24 Este 50 Este 0 -- -- 24
2019-08-11 22:00:00 21.4 23 Este 55 Este 0 -- -- 25
2019-08-11 21:00:00 20.4 10 Este 45 Este 0 -- -- 58
2019-08-11 20:00:00 19.6 25 Este 46 Este 0 -- -- 73
2019-08-11 19:00:00 21.3 25 Este 44 Este 0 -- -- 68
2019-08-11 18:00:00 22.5 23 Este 43 Sudeste 0 -- -- 64
2019-08-11 17:00:00 22.9 23 Sudeste 46 Este 0 -- -- 71
2019-08-11 16:00:00 22.5 30 Sudeste 45 Sudeste 0 -- -- 75
2019-08-11 15:00:00 23.9 26 Este 46 Este 0 -- -- 66
2019-08-11 14:00:00 24.1 27 Este 45 Este 0 -- -- 62
2019-08-11 13:00:00 24.8 23 Este 37 Este 0 -- -- 61
2019-08-11 12:00:00 24.4 21 Este 33 Este 0 -- -- 63
2019-08-11 11:00:00 22.7 18 Este 36 Este 0 -- -- 66
2019-08-11 10:00:00 21.7 15 Este 32 Este 0 -- -- 69
2019-08-11 09:00:00 19.9 12 Este 29 Sudeste 0 -- -- 75
2019-08-11 08:00:00 19.1 14 Este 36 Este 0 -- -- 80
2019-08-11 07:00:00 18.9 7 Nordeste 35 Sudeste 0 -- -- 60
2019-08-11 06:00:00 19.3 18 Este 33 Sudeste 0 -- -- 74
2019-08-11 05:00:00 19.7 16 Sudeste 40 Sudeste 0 -- -- 69
2019-08-11 04:00:00 20 18 Este 44 Sudeste 0 -- -- 68
2019-08-11 03:00:00 21 15 Sudeste 26 Este 0 -- -- 51
2019-08-11 02:00:00 19.6 4 Este 9 Este 0 -- -- 52
2019-08-11 01:00:00 20 0 Calma 10 Este 0 -- -- 49
2019-08-11 00:00:00 20.1 4 Este 9 Este 0 -- -- 51
2019-08-10 23:00:00 21.1 5 Este 9 Este 0 -- -- 52
2019-08-10 22:00:00 22.4 3 Este 7 Oeste 0 -- -- 50
2019-08-10 21:00:00 24.8 4 Sudoeste 7 Oeste 0 -- -- 62
2019-08-10 20:00:00 25.5 4 Oeste 16 Oeste 0 -- -- 56
2019-08-10 19:00:00 26.1 5 Oeste 22 Oeste 0 -- -- 59
2019-08-10 18:00:00 26.8 8 Oeste 22 Oeste 0 -- -- 57
2019-08-10 17:00:00 27.7 12 Oeste 21 Oeste 0 -- -- 58
2019-08-10 16:00:00 27.4 11 Oeste 23 Oeste 0 -- -- 55
2019-08-10 15:00:00 28 13 Oeste 26 Oeste 0 -- -- 49
2019-08-10 14:00:00 27.2 12 Oeste 21 Oeste 0 -- -- 37
2019-08-10 13:00:00 27.7 11 Oeste 19 Oeste 0 -- -- 44
2019-08-10 12:00:00 27.1 10 Oeste 18 Oeste 0 -- -- 54
2019-08-10 11:00:00 27.7 8 Oeste 12 Oeste 0 -- -- 37
2019-08-10 10:00:00 26.8 7 Oeste 11 Oeste 0 -- -- 31
2019-08-10 09:00:00 23.5 3 Este 8 Este 0 -- -- 50
2019-08-10 08:00:00 20.9 3 Sudeste 6 Este 0 -- -- 47
2019-08-10 07:00:00 21.2 3 Sudeste 9 Este 0 -- -- 42
2019-08-10 06:00:00 21.1 0 Calma 11 Este 0 -- -- 31
2019-08-10 05:00:00 20.2 3 Este 8 Este 0 -- -- 34
2019-08-10 04:00:00 20.4 5 Este 6 Este 0 -- -- 38
2019-08-10 03:00:00 21 4 Sudeste 8 Sudoeste 0 -- -- 38
2019-08-10 02:00:00 21.4 6 Este 10 Este 0 -- -- 38
2019-08-10 01:00:00 21.3 5 Este 8 Este 0 -- -- 40
2019-08-10 00:00:00 21.5 5 Este 8 Este 0 -- -- 40
2019-08-09 23:00:00 22 5 Este 8 Este 0 -- -- 33
2019-08-09 22:00:00 22.8 0 Calma 5 Oeste 0 -- -- 50
2019-08-09 21:00:00 25 3 Oeste 9 Oeste 0 -- -- 64
2019-08-09 20:00:00 26.3 7 Oeste 13 Oeste 0 -- -- 60
2019-08-09 19:00:00 26.4 7 Oeste 15 Oeste 0 -- -- 59
2019-08-09 18:00:00 26.4 10 Oeste 18 Oeste 0 -- -- 59
2019-08-09 17:00:00 27.2 12 Oeste 22 Oeste 0 -- -- 56
2019-08-09 16:00:00 28.1 12 Oeste 21 Oeste 0 -- -- 47
2019-08-09 15:00:00 28.7 11 Oeste 19 Oeste 0 -- -- 45
2019-08-09 14:00:00 28.4 10 Oeste 19 Oeste 0 -- -- 45
2019-08-09 13:00:00 30.3 12 Oeste 18 Oeste 0 -- -- 35
2019-08-09 12:00:00 31 8 Oeste 19 Oeste 0 -- -- 20
2019-08-09 11:00:00 30.5 5 Oeste 9 Oeste 0 -- -- 13
2019-08-09 10:00:00 26.4 7 Oeste 12 Oeste 0 -- -- 18
2019-08-09 09:00:00 21.4 4 Sudeste 9 Este 0 -- -- 23
2019-08-09 08:00:00 18.4 4 Sudeste 8 Este 0 -- -- 24
2019-08-09 07:00:00 18.6 4 Sudeste 9 Sudeste 0 -- -- 21
2019-08-09 06:00:00 17.8 5 Sudeste 11 Este 0 -- -- 25
2019-08-09 05:00:00 18 5 Este 9 Sudeste 0 -- -- 24
2019-08-09 04:00:00 18.4 6 Sudeste 13 Este 0 -- -- 24
2019-08-09 03:00:00 17.7 3 Este 6 Sudeste 0 -- -- 27
2019-08-09 02:00:00 18.4 4 Sudeste 8 Este 0 -- -- 27
2019-08-09 01:00:00 18.4 7 Este 10 Este 0 -- -- 28
2019-08-09 00:00:00 19.2 5 Este 12 Este 0 -- -- 29
2019-08-08 23:00:00 19.2 4 Este 7 Este 0 -- -- 42
2019-08-08 22:00:00 20.6 4 Este 6 Este 0 -- -- 55
2019-08-08 21:00:00 23 0 Calma 14 Oeste 0 -- -- 71
2019-08-08 20:00:00 26.1 10 Oeste 15 Oeste 0 -- -- 60
2019-08-08 19:00:00 25.6 8 Oeste 14 Oeste 0 -- -- 61
2019-08-08 18:00:00 25.1 8 Noroeste 21 Oeste 0 -- -- 64
2019-08-08 17:00:00 26.7 12 Oeste 21 Oeste 0 -- -- 57
2019-08-08 16:00:00 27.4 13 Oeste 21 Oeste 0 -- -- 54
2019-08-08 15:00:00 27.3 11 Oeste 21 Oeste 0 -- -- 45
2019-08-08 14:00:00 27.1 12 Oeste 19 Oeste 0 -- -- 42
2019-08-08 13:00:00 26.3 10 Oeste 18 Oeste 0 -- -- 47
2019-08-08 12:00:00 26.9 5 Oeste 17 Oeste 0 -- -- 44
2019-08-08 11:00:00 26.1 9 Oeste 12 Oeste 0 -- -- 28
2019-08-08 10:00:00 25 2 Noroeste 9 Este 0 -- -- 24
2019-08-08 09:00:00 18.9 4 Este 11 Este 0 -- -- 32
2019-08-08 08:00:00 16 7 Sudeste 10 Este 0 -- -- 33
2019-08-08 07:00:00 14.9 5 Este 8 Este 0 -- -- 37
2019-08-08 06:00:00 14.7 4 Sudeste 8 Sudeste 0 -- -- 40
2019-08-08 05:00:00 14.5 4 Este 6 Sudeste 0 -- -- 40
2019-08-08 04:00:00 15 5 Sudeste 9 Este 0 -- -- 38
2019-08-08 03:00:00 15 4 Este 10 Este 0 -- -- 41
2019-08-08 02:00:00 15.3 4 Este 8 Este 0 -- -- 45
2019-08-08 01:00:00 16.3 3 Sudeste 10 Este 0 -- -- 49
2019-08-08 00:00:00 16.3 3 Sudeste 8 Este 0 -- -- 57
2019-08-07 23:00:00 17.1 2 Nordeste 4 Oeste 0 -- -- 79
2019-08-07 22:00:00 18.5 0 Calma 5 Este 0 -- -- 69
2019-08-07 21:00:00 20.4 3 Oeste 8 Oeste 0 -- -- 81
2019-08-07 20:00:00 21 6 Oeste 13 Oeste 0 -- -- 79
2019-08-07 19:00:00 22.1 8 Oeste 19 Noroeste 0 -- -- 77
2019-08-07 18:00:00 23.6 13 Oeste 23 Oeste 0 -- -- 71
2019-08-07 17:00:00 24.1 13 Oeste 24 Oeste 0 -- -- 69
2019-08-07 16:00:00 23.6 12 Oeste 23 Oeste 0 -- -- 69
2019-08-07 15:00:00 23.6 12 Oeste 29 Oeste 0 -- -- 66
2019-08-07 14:00:00 23.2 12 Oeste 22 Oeste 0 -- -- 66
2019-08-07 13:00:00 23.3 10 Oeste 22 Oeste 0 -- -- 66
2019-08-07 12:00:00 21.9 17 Oeste 25 Oeste 0 -- -- 68
2019-08-07 11:00:00 21.3 12 Oeste 23 Noroeste 0 -- -- 67
2019-08-07 10:00:00 20.5 5 Oeste 9 Oeste 0 -- -- 68
2019-08-07 09:00:00 14.8 4 Sudeste 7 Sudeste 0 -- -- 62
2019-08-07 08:00:00 12.6 5 Este 10 Nordeste 0 -- -- 68
2019-08-07 07:00:00 14.1 3 Este 33 Sudeste 0 -- -- 64
2019-08-07 06:00:00 16 15 Este 33 Sudeste 0 -- -- 70
2019-08-07 05:00:00 15.3 11 Este 24 Sudeste 0 -- -- 79
2019-08-07 04:00:00 15.9 13 Este 35 Este 0 -- -- 75
2019-08-07 03:00:00 15.9 17 Este 37 Este 0 -- -- 81
2019-08-07 02:00:00 16.2 21 Este 45 Este 0 -- -- 80
2019-08-07 01:00:00 16.1 16 Este 31 Nordeste 0 -- -- 80
2019-08-07 00:00:00 15.7 5 Este 23 Sudeste 0 -- -- 83
2019-08-06 23:00:00 16.7 17 Este 41 Este 0 -- -- 79
2019-08-06 22:00:00 17.2 23 Este 41 Este 0 -- -- 80
2019-08-06 21:00:00 18 14 Sudeste 30 Este 0 -- -- 77
2019-08-06 20:00:00 19.4 16 Este 31 Este 0 -- -- 74
2019-08-06 19:00:00 20.8 9 Sudeste 22 Sudeste 0 -- -- 67
2019-08-06 18:00:00 21.3 9 Este 24 Sudeste 0 -- -- 68
2019-08-06 17:00:00 22.7 10 Oeste 21 Oeste 0 -- -- 71
2019-08-06 16:00:00 22.8 15 Sudeste 32 Sudeste 0 -- -- 64
2019-08-06 15:00:00 22.5 18 Sudeste 30 Este 0 -- -- 65
2019-08-06 14:00:00 22.2 17 Sudeste 31 Este 0 -- -- 66
2019-08-06 13:00:00 22.8 16 Este 27 Sudeste 0 -- -- 63
2019-08-06 12:00:00 22.2 12 Este 30 Sudeste 0 -- -- 64
2019-08-06 11:00:00 21.9 9 Oeste 22 Sudeste 0 -- -- 67
2019-08-06 10:00:00 21.3 13 Este 24 Este 0 -- -- 62
2019-08-06 09:00:00 17 4 Este 11 Este 0 -- -- 56
2019-08-06 08:00:00 15.5 3 Este 16 Este 0 -- -- 60
2019-08-06 07:00:00 16.4 7 Este 19 Este 0 -- -- 71
2019-08-06 06:00:00 16.9 10 Este 30 Este 0 -- -- 71
2019-08-06 05:00:00 17.6 14 Este 30 Este 0 -- -- 73
2019-08-06 04:00:00 18.1 12 Nordeste 42 Este 0 -- -- 67
2019-08-06 03:00:00 18.3 25 Este 46 Sudeste 0 -- -- 69
2019-08-06 02:00:00 18.4 25 Este 43 Este 0 -- -- 67
2019-08-06 01:00:00 18.3 23 Este 44 Este 0 -- -- 68
2019-08-06 00:00:00 18.6 21 Este 40 Sudeste 0 -- -- 64
2019-08-05 23:00:00 18.9 13 Este 28 Este 0 -- -- 60
2019-08-05 22:00:00 19.1 15 Este 28 Este 0 -- -- 63
2019-08-05 21:00:00 20.7 6 Este 16 Este 0 -- -- 63
2019-08-05 20:00:00 22.1 8 Oeste 20 Oeste 0 -- -- 75
2019-08-05 19:00:00 23.2 11 Oeste 34 Sudeste 0 -- -- 71
2019-08-05 18:00:00 22.1 17 Sudeste 53 Este 0 -- -- 62
2019-08-05 17:00:00 22.7 27 Sudeste 51 Este 0 -- -- 51
2019-08-05 16:00:00 23.2 32 Este 48 Este 0 -- -- 49
2019-08-05 15:00:00 23.9 21 Este 46 Este 0 -- -- 55
2019-08-05 14:00:00 23.5 26 Este 50 Este 0 -- -- 58
2019-08-05 13:00:00 23.2 25 Este 46 Este 0 -- -- 56
2019-08-05 12:00:00 22.2 24 Este 45 Este 0 -- -- 60
2019-08-05 11:00:00 21.5 20 Este 49 Nordeste 0 -- -- 63
2019-08-05 10:00:00 19.5 25 Este 48 Este 0 -- -- 67
2019-08-05 09:00:00 17.3 22 Sudeste 41 Este 0 -- -- 79
2019-08-05 08:00:00 16.5 20 Este 37 Sudeste 0 -- -- 78
2019-08-05 07:00:00 16.4 23 Este 40 Este 0 -- -- 78
2019-08-05 06:00:00 16.5 22 Este 45 Sudeste 0 -- -- 79
2019-08-05 05:00:00 16.4 21 Este 39 Este 0 -- -- 77
2019-08-05 04:00:00 16.4 26 Este 46 Este 0 -- -- 83
2019-08-05 03:00:00 16.9 14 Este 36 Este 0 -- -- 73
2019-08-05 02:00:00 17.4 11 Este 41 Este 0 -- -- 71
2019-08-05 01:00:00 17.3 19 Este 44 Este 0 -- -- 75
2019-08-05 00:00:00 17.9 18 Este 44 Este 0 -- -- 74
2019-08-04 23:00:00 18.3 21 Este 49 Este 0 -- -- 70
2019-08-04 22:00:00 18.5 24 Este 53 Este 0 -- -- 68
2019-08-04 21:00:00 18.5 24 Este 45 Este 0 -- -- 70
2019-08-04 20:00:00 19.7 19 Este 40 Este 0 -- -- 71
2019-08-04 19:00:00 20.9 20 Sudeste 41 Sudeste 0 -- -- 68
2019-08-04 18:00:00 21.2 26 Este 45 Sudeste 0 -- -- 65
2019-08-04 17:00:00 21.9 24 Este 47 Este 0 -- -- 63
2019-08-04 16:00:00 22.1 21 Este 41 Este 0 -- -- 63
2019-08-04 15:00:00 22.8 22 Este 44 Sur 0 -- -- 59
2019-08-04 14:00:00 22.6 12 Sudoeste 36 Sudeste 0 -- -- 67
2019-08-04 13:00:00 22.5 9 Oeste 33 Este 0 -- -- 68
2019-08-04 12:00:00 21.1 17 Este 35 Este 0 -- -- 68
2019-08-04 11:00:00 20 17 Este 32 Este 0 -- -- 71
2019-08-04 10:00:00 19.1 15 Este 30 Este 0 -- -- 68
2019-08-04 09:00:00 15.2 2 Nordeste 6 Este 0 -- -- 75
2019-08-04 08:00:00 12.7 4 Este 8 Este 0 -- -- 78
2019-08-04 07:00:00 13.2 3 Este 16 Este 0 -- -- 79
2019-08-04 06:00:00 14.9 6 Este 28 Este 0 -- -- 76
2019-08-04 05:00:00 15.5 6 Este 33 Norte 0 -- -- 77
2019-08-04 04:00:00 15.9 15 Este 39 Este 0 -- -- 75
2019-08-04 03:00:00 16.1 19 Este 36 Este 0 -- -- 79
2019-08-04 02:00:00 16.2 16 Este 41 Este 0 -- -- 79
2019-08-04 01:00:00 16 10 Este 48 Este 0 -- -- 76
2019-08-04 00:00:00 16.2 19 Este 32 Este 0 -- -- 75
2019-08-03 23:00:00 16.6 13 Este 28 Este 0 -- -- 76
2019-08-03 22:00:00 17.8 4 Oeste 27 Este 0 -- -- 81
2019-08-03 21:00:00 18.6 16 Este 31 Este 0 -- -- 68
2019-08-03 20:00:00 20.1 18 Sudeste 32 Este 0 -- -- 65
2019-08-03 19:00:00 21 21 Este 36 Este 0 -- -- 63
2019-08-03 18:00:00 23 6 Noroeste 26 Este 0 -- -- 61
2019-08-03 17:00:00 23.1 12 Oeste 23 Oeste 0 -- -- 66
2019-08-03 16:00:00 23.1 14 Oeste 24 Oeste 0 -- -- 67
2019-08-03 15:00:00 22.4 13 Oeste 22 Oeste 0 -- -- 68
2019-08-03 14:00:00 21.8 14 Oeste 24 Oeste 0 -- -- 70
2019-08-03 13:00:00 22 13 Oeste 26 Oeste 0 -- -- 71
2019-08-03 12:00:00 21.3 9 Oeste 21 Oeste 0 -- -- 72
2019-08-03 11:00:00 21 7 Oeste 15 Oeste 0 -- -- 71
2019-08-03 10:00:00 19.4 8 Oeste 12 Oeste 0 -- -- 73
2019-08-03 09:00:00 16.1 3 Oeste 10 Oeste 0 -- -- 79
2019-08-03 08:00:00 12.9 0 Calma 4 Este 0 -- -- 80
2019-08-03 07:00:00 13.8 2 Oeste 9 Este 0 -- -- 72
2019-08-03 06:00:00 14.2 0 Calma 5 Este 0 -- -- 74
2019-08-03 05:00:00 15.8 3 Sudoeste 11 Este 0 -- -- 69
2019-08-03 04:00:00 18.5 10 Sudeste 22 Sudeste 0 -- -- 54
2019-08-03 03:00:00 14.1 2 Este 10 Nordeste 0 -- -- 82
2019-08-03 02:00:00 15 2 Sudoeste 7 Nordeste 0 -- -- 80
2019-08-03 01:00:00 16.2 4 Sudeste 9 Sudeste 0 -- -- 73
2019-08-03 00:00:00 16 2 Este 8 Este 0 -- -- 74
2019-08-02 23:00:00 16.5 0 Calma 10 Noroeste 0 -- -- 84
2019-08-02 22:00:00 18 5 Oeste 10 Sudoeste 0 -- -- 83
2019-08-02 21:00:00 19.7 5 Oeste 13 Oeste 0 -- -- 76
2019-08-02 20:00:00 21.6 8 Oeste 17 Noroeste 0 -- -- 70
2019-08-02 19:00:00 22.6 10 Oeste 18 Oeste 0 -- -- 67
2019-08-02 18:00:00 22.5 10 Oeste 20 Oeste 0 -- -- 67
2019-08-02 17:00:00 22.1 12 Oeste 30 Oeste 0 -- -- 70
2019-08-02 16:00:00 22.3 12 Oeste 26 Noroeste 0 -- -- 69
2019-08-02 15:00:00 22.6 14 Oeste 26 Oeste 0 -- -- 69
2019-08-02 14:00:00 22.8 12 Oeste 23 Oeste 0 -- -- 65
2019-08-02 13:00:00 23.1 13 Oeste 33 Este 0 -- -- 61
2019-08-02 12:00:00 21.6 19 Este 32 Este 0 -- -- 65
2019-08-02 11:00:00 20 13 Sudoeste 21 Oeste 0 -- -- 71
2019-08-02 10:00:00 19.8 5 Oeste 13 Oeste 0 -- -- 70
2019-08-02 09:00:00 15.4 2 Oeste 6 Oeste 0 -- -- 85
2019-08-02 08:00:00 12.6 2 Este 8 Este 0 -- -- 89
2019-08-02 07:00:00 11.9 2 Sudeste 7 Este 0 -- -- 73
2019-08-02 06:00:00 12.6 4 Este 8 Este 0 -- -- 69
2019-08-02 05:00:00 13.9 2 Sur 9 Este 0 -- -- 75
2019-08-02 04:00:00 14.4 3 Sudeste 10 Este 0 -- -- 46
2019-08-02 03:00:00 14.6 3 Sudeste 12 Este 0 -- -- 52
2019-08-02 02:00:00 14.1 4 Este 8 Este 0 -- -- 58
2019-08-02 01:00:00 15.2 4 Este 12 Este 0 -- -- 57
2019-08-02 00:00:00 14.9 3 Este 12 Este 0 -- -- 79
2019-08-01 23:00:00 15.7 0 Calma 7 Oeste 0 -- -- 84
2019-08-01 22:00:00 17.4 0 Calma 6 Noroeste 0 -- -- 84
2019-08-01 21:00:00 18.8 2 Noroeste 17 Oeste 0 -- -- 79
2019-08-01 20:00:00 21 10 Oeste 17 Oeste 0 -- -- 71
2019-08-01 19:00:00 21.7 9 Oeste 21 Oeste 0 -- -- 70
2019-08-01 18:00:00 22.4 11 Oeste 23 Oeste 0 -- -- 67
2019-08-01 17:00:00 22.9 14 Oeste 38 Noroeste 0 -- -- 63
2019-08-01 16:00:00 22.4 10 Oeste 24 Oeste 0 -- -- 65
2019-08-01 15:00:00 21.8 10 Oeste 23 Oeste 0 -- -- 68
2019-08-01 14:00:00 21.6 15 Oeste 37 Este 0 -- -- 68
2019-08-01 13:00:00 21.7 18 Este 38 Sur 0 -- -- 63
2019-08-01 12:00:00 21.2 9 Oeste 26 Este 0 -- -- 68
2019-08-01 11:00:00 20.5 9 Este 35 Este 0 -- -- 64
2019-08-01 10:00:00 18.6 7 Oeste 13 Oeste 0 -- -- 70
2019-08-01 09:00:00 14.2 3 Este 7 Este 0 -- -- 75
2019-08-01 08:00:00 12.2 3 Sudeste 26 Sudeste 0 -- -- 60
2019-08-01 07:00:00 11.6 4 Nordeste 9 Este 0 -- -- 74
2019-08-01 06:00:00 12.3 4 Este 14 Este 0 -- -- 60
2019-08-01 05:00:00 12.3 3 Sudeste 15 Este 0 -- -- 70
2019-08-01 04:00:00 12.4 4 Este 10 Este 0 -- -- 82
2019-08-01 03:00:00 14.6 2 Norte 30 Sudeste 0 -- -- 76
2019-08-01 02:00:00 13.1 3 Este 29 Sudeste 0 -- -- 76
2019-08-01 01:00:00 13.1 2 Nordeste 17 Este 0 -- -- 85
2019-08-01 00:00:00 13.4 2 Este 8 Sudoeste 0 -- -- 86
2019-07-31 23:00:00 14.2 2 Este 6 Este 0 -- -- 81
2019-07-31 22:00:00 15.9 2 Oeste 26 Este 0 -- -- 82
2019-07-31 21:00:00 16.4 18 Este 35 Sudeste 0 -- -- 76
2019-07-31 20:00:00 17.4 21 Este 38 Este 0 -- -- 75
2019-07-31 19:00:00 19.1 19 Este 35 Este 0 -- -- 68
2019-07-31 18:00:00 19.8 21 Este 38 Este 0 -- -- 69
2019-07-31 17:00:00 19.4 23 Este 49 Este 0 -- -- 68
2019-07-31 16:00:00 19.1 26 Este 42 Este 0 -- -- 72
2019-07-31 15:00:00 20.5 21 Sudeste 41 Sudeste 0 -- -- 67
2019-07-31 14:00:00 19.6 26 Este 44 Sudeste 0 -- -- 70
2019-07-31 13:00:00 19.6 26 Este 49 Este 0 -- -- 69
2019-07-31 12:00:00 18.6 26 Este 44 Sudeste 0 -- -- 70
2019-07-31 11:00:00 17.5 23 Este 45 Este 0 -- -- 78
2019-07-31 10:00:00 16.3 26 Este 49 Este 0 -- -- 82
2019-07-31 09:00:00 15.1 21 Este 37 Sudeste 0 -- -- 86
2019-07-31 08:00:00 14.6 16 Este 40 Este 0 -- -- 85
2019-07-31 07:00:00 14.9 21 Este 45 Este 0 -- -- 79
2019-07-31 06:00:00 14.4 24 Este 50 Este 0 -- -- 82
2019-07-31 05:00:00 14.7 22 Este 44 Este 0 -- -- 78
2019-07-31 04:00:00 14.3 12 Este 28 Este 0 -- -- 75
2019-07-31 03:00:00 14.8 14 Este 37 Este 0 -- -- 67
2019-07-31 02:00:00 14.8 17 Este 41 Este 0 -- -- 72
2019-07-31 01:00:00 15.1 15 Este 42 Sudeste 0 -- -- 72
2019-07-31 00:00:00 15.3 21 Este 48 Este 0 -- -- 72
2019-07-30 23:00:00 15.5 23 Este 45 Este 0 -- -- 75
2019-07-30 22:00:00 15.4 22 Este 44 Sudeste 0 -- -- 80
2019-07-30 21:00:00 16.1 25 Este 50 Este 0 -- -- 78
2019-07-30 20:00:00 17.6 24 Este 41 Este 0 -- -- 76
2019-07-30 19:00:00 18.2 24 Este 47 Este 0 -- -- 76
2019-07-30 18:00:00 18.9 28 Este 55 Este 0 -- -- 75
2019-07-30 17:00:00 19.6 30 Este 48 Este 0 -- -- 71
2019-07-30 16:00:00 20.3 27 Este 46 Este 0 -- -- 71
2019-07-30 15:00:00 20 24 Este 42 Este 0 -- -- 72
2019-07-30 14:00:00 20.4 24 Este 45 Este 0 -- -- 74
2019-07-30 13:00:00 20.8 24 Este 42 Este 0 -- -- 68
2019-07-30 12:00:00 19.7 19 Este 42 Este 0 -- -- 73
2019-07-30 11:00:00 18.9 26 Este 44 Este 0 -- -- 79
2019-07-30 10:00:00 17.8 23 Este 42 Este 0 -- -- 86
2019-07-30 09:00:00 16.5 22 Este 40 Este 0 -- -- 88
2019-07-30 08:00:00 16.6 19 Este 45 Este 0 -- -- 86
2019-07-30 07:00:00 17 27 Este 53 Este 0 -- -- 81
2019-07-30 06:00:00 17 21 Este 44 Este 0 -- -- 77
2019-07-30 05:00:00 16.9 21 Este 53 Este 0 -- -- 78
2019-07-30 04:00:00 16.8 30 Este 53 Sudeste 0 -- -- 82
2019-07-30 03:00:00 17.1 28 Este 56 Sudeste 0 -- -- 80
2019-07-30 02:00:00 17.4 36 Este 68 Este 0 -- -- 79
2019-07-30 01:00:00 17.3 39 Este 67 Este 0 -- -- 78
2019-07-30 00:00:00 17.2 39 Este 66 Este 0 -- -- 79
2019-07-29 23:00:00 17.3 41 Este 68 Sudeste 0 -- -- 80
2019-07-29 22:00:00 16.7 37 Sudeste 64 Este 0 -- -- 82
2019-07-29 21:00:00 17.7 41 Este 62 Este 0 -- -- 77
2019-07-29 20:00:00 18.9 37 Este 57 Este 0 -- -- 75
2019-07-29 19:00:00 19.2 42 Este 63 Sudeste 0 -- -- 76
2019-07-29 18:00:00 20.9 39 Este 63 Sudeste 0 -- -- 62
2019-07-29 17:00:00 21.1 32 Este 54 Este 0 -- -- 66
2019-07-29 16:00:00 21.7 33 Este 60 Este 0 -- -- 63
2019-07-29 15:00:00 23 36 Este 58 Este 0 -- -- 54
2019-07-29 14:00:00 23.1 27 Este 50 Este 0 -- -- 52
2019-07-29 13:00:00 21.8 28 Este 51 Este 0 -- -- 59
2019-07-29 12:00:00 22.1 21 Este 45 Este 0 -- -- 62
2019-07-29 11:00:00 22.2 15 Nordeste 40 Este 0 -- -- 63
2019-07-29 10:00:00 20.3 4 Oeste 10 Sur 0 -- -- 73
2019-07-29 09:00:00 16.3 4 Noroeste 10 Oeste 0 -- -- 96
2019-07-29 08:00:00 15 3 Noroeste 10 Noroeste 0 -- -- 95
2019-07-29 07:00:00 15.7 0 Calma 6 Nordeste 0 -- -- 97
2019-07-29 06:00:00 15.6 2 Noroeste 7 Oeste 0 -- -- 97
2019-07-29 05:00:00 15.6 2 Este 4 Este 0 -- -- 97
2019-07-29 04:00:00 16.1 0 Calma 4 Nordeste 0 -- -- 95
2019-07-29 03:00:00 16.6 3 Este 10 Este 0 -- -- 95
2019-07-29 02:00:00 17.3 3 Este 8 Este 0 -- -- 93
2019-07-29 01:00:00 17.8 2 Norte 6 Nordeste 0 -- -- 90
2019-07-29 00:00:00 18.6 3 Norte 8 Oeste 0 -- -- 87
2019-07-28 23:00:00 19.3 3 Oeste 11 Oeste 0 -- -- 85
2019-07-28 22:00:00 19.9 3 Oeste 9 Oeste 0 -- -- 82
2019-07-28 21:00:00 21 5 Noroeste 13 Oeste 0 -- -- 80
2019-07-28 20:00:00 23 7 Oeste 18 Oeste 0 -- -- 73
2019-07-28 19:00:00 23.8 10 Oeste 17 Oeste 0 -- -- 69
2019-07-28 18:00:00 23.6 12 Oeste 21 Oeste 0 -- -- 70
2019-07-28 17:00:00 23.9 15 Oeste 22 Oeste 0 -- -- 68
2019-07-28 16:00:00 24.5 12 Oeste 40 Este 0 -- -- 65
2019-07-28 15:00:00 22.4 30 Este 47 Este 0 -- -- 72
2019-07-28 14:00:00 25.1 12 Sudeste 43 Este 0 -- -- 60
2019-07-28 13:00:00 24.6 21 Este 43 Sudoeste 0 -- -- 62
2019-07-28 12:00:00 25.7 22 Sudeste 37 Este 0 -- -- 55
2019-07-28 11:00:00 25.1 11 Noroeste 37 Este 0 -- -- 55
2019-07-28 10:00:00 24.1 11 Oeste 17 Oeste 0 -- -- 50
2019-07-28 09:00:00 23.1 4 Nordeste 15 Este 0 -- -- 27
2019-07-28 08:00:00 19.4 4 Nordeste 14 Este 0 -- -- 31
2019-07-28 07:00:00 18.6 4 Norte 11 Este 0 -- -- 35
2019-07-28 06:00:00 19.2 6 Este 14 Nordeste 0 -- -- 35
2019-07-28 05:00:00 19.9 2 Nordeste 14 Este 0 -- -- 34
2019-07-28 04:00:00 20.5 12 Este 29 Este 0 -- -- 42
2019-07-28 03:00:00 19.9 3 Nordeste 18 Este 0 -- -- 34
2019-07-28 02:00:00 21.9 6 Este 33 Nordeste 0 -- -- 20
2019-07-28 01:00:00 22.7 14 Este 36 Este 0 -- -- 11
2019-07-28 00:00:00 22.4 14 Este 31 Este 0 -- -- 11
2019-07-27 23:00:00 22.7 14 Este 26 Este 0 -- -- 11
2019-07-27 22:00:00 21.9 11 Este 26 Este 0 -- -- 17
2019-07-26 11:00:00 -- -- -- -- -- -- -- -- --
2019-07-26 10:00:00 25.4 22 Este 39 Este 0 -- -- 45
2019-07-26 09:00:00 23.3 19 Este 40 Este 0 -- -- 48
2019-07-26 08:00:00 21.1 20 Este 46 Este 0 -- -- 53
2019-07-26 07:00:00 20.5 25 Este 42 Este 0 -- -- 60
2019-07-26 06:00:00 19.7 16 Sudeste 39 Sudeste 0 -- -- 59
2019-07-26 05:00:00 19.9 22 Este 45 Este 0 -- -- 62
2019-07-26 04:00:00 20.6 18 Sudeste 36 Este 0 -- -- 55
2019-07-26 03:00:00 20.3 21 Este 36 Este 0 -- -- 57
2019-07-26 02:00:00 20.8 19 Sudeste 37 Este 0 -- -- 57
2019-07-26 01:00:00 21.7 8 Este 24 Este 0 -- -- 46
2019-07-26 00:00:00 21.1 3 Este 8 Nordeste 0 -- -- 54
2019-07-25 23:00:00 21.2 4 Nordeste 6 Nordeste 0 -- -- 60
2019-07-25 22:00:00 22.5 0 Calma 6 Noroeste 0 -- -- 61
2019-07-25 21:00:00 23.5 2 Oeste 15 Oeste 0 -- -- 59
2019-07-25 20:00:00 25.4 12 Oeste 18 Noroeste 0 -- -- 58
2019-07-25 19:00:00 27.1 8 Oeste 20 Oeste 0 -- -- 46
2019-07-25 18:00:00 26.8 9 Oeste 25 Oeste 0 -- -- 47
2019-07-25 17:00:00 26.6 8 Oeste 28 Oeste 0 -- -- 47
2019-07-25 16:00:00 27.3 13 Oeste 22 Oeste 0 -- -- 50
2019-07-25 15:00:00 26.2 9 Oeste 24 Oeste 0 -- -- 44
2019-07-25 14:00:00 26.6 11 Oeste 26 Oeste 0 -- -- 44
2019-07-25 13:00:00 27.5 18 Oeste 32 Este 0 -- -- 42
2019-07-25 12:00:00 25.8 12 Oeste 30 Este 0 -- -- 42
2019-07-25 11:00:00 27.2 10 Este 34 Sudeste 0 -- -- 32
2019-07-25 10:00:00 25.6 6 Oeste 12 Noroeste 0 -- -- 32
2019-07-25 09:00:00 20.7 2 Este 9 Este 0 -- -- 32
2019-07-25 08:00:00 18.2 4 Este 21 Este 0 -- -- 35
2019-07-25 07:00:00 19.2 10 Este 18 Este 0 -- -- 30
2019-07-25 06:00:00 17.1 6 Este 15 Este 0 -- -- 39
2019-07-25 05:00:00 17.2 3 Sudeste 8 Este 0 -- -- 39
2019-07-25 04:00:00 18.3 4 Este 18 Sudeste 0 -- -- 38
2019-07-25 03:00:00 19.1 5 Este 18 Este 0 -- -- 37
2019-07-25 02:00:00 20.8 8 Este 26 Este 0 -- -- 33
2019-07-25 01:00:00 21.1 10 Este 26 Este 0 -- -- 30
2019-07-25 00:00:00 21.3 10 Este 26 Este 0 -- -- 37
2019-07-24 23:00:00 22 15 Este 35 Este 0 -- -- 22
2019-07-24 22:00:00 22.6 19 Este 33 Este 0 -- -- 22
2019-07-24 21:00:00 23.3 4 Norte 29 Sudeste 0 -- -- 56
2019-07-24 20:00:00 24.3 18 Este 31 Este 0 -- -- 32
2019-07-24 19:00:00 24.2 12 Oeste 20 Oeste 0 -- -- 63
2019-07-24 18:00:00 25.1 12 Oeste 20 Oeste 0 -- -- 59
2019-07-24 17:00:00 25.3 13 Oeste 23 Oeste 0 -- -- 58
2019-07-24 16:00:00 25.7 15 Oeste 23 Oeste 0 -- -- 57
2019-07-24 15:00:00 24.8 13 Oeste 24 Oeste 0 -- -- 59
2019-07-24 14:00:00 25.2 14 Oeste 25 Oeste 0 -- -- 56
2019-07-24 13:00:00 24.8 15 Oeste 21 Oeste 0 -- -- 55
2019-07-24 12:00:00 24.2 12 Oeste 22 Oeste 0 -- -- 56
2019-07-24 11:00:00 24.6 8 Oeste 35 Este 0 -- -- 51
2019-07-24 10:00:00 23 12 Oeste 19 Oeste 0 -- -- 54
2019-07-24 09:00:00 23.3 6 Norte 31 Este 0 -- -- 28
2019-07-24 08:00:00 22.1 21 Este 46 Este 0 -- -- 20
2019-07-24 07:00:00 18.3 4 Nordeste 33 Este 0 -- -- 34
2019-07-24 06:00:00 21.1 20 Este 42 Este 0 -- -- 25
2019-07-24 05:00:00 21.5 29 Este 49 Sudeste 0 -- -- 26
2019-07-24 04:00:00 21 32 Sudeste 53 Sudeste 0 -- -- 31
2019-07-24 03:00:00 20.9 33 Sudeste 53 Sudeste 0 -- -- 32
2019-07-24 02:00:00 20.2 31 Sudeste 50 Sudeste 0 -- -- 38
2019-07-24 01:00:00 21.2 28 Sudeste 54 Este 0 -- -- 31
2019-07-24 00:00:00 21.1 28 Este 51 Sudeste 0 -- -- 32
2019-07-23 23:00:00 20.8 33 Sudeste 51 Sudeste 0 -- -- 38
2019-07-23 22:00:00 21.1 13 Este 29 Este 0 -- -- 43
2019-07-23 21:00:00 20.8 3 Sudoeste 17 Oeste 0 -- -- 69
2019-07-23 20:00:00 21.9 12 Oeste 21 Oeste 0 -- -- 66
2019-07-23 19:00:00 22.5 14 Oeste 24 Oeste 0 -- -- 63
2019-07-23 18:00:00 24.2 10 Oeste 22 Oeste 0 -- -- 57
2019-07-23 17:00:00 25.3 13 Oeste 26 Oeste 0 -- -- 50
2019-07-23 16:00:00 24.9 9 Oeste 23 Oeste 0 -- -- 52
2019-07-23 15:00:00 23.4 14 Oeste 35 Sur 0 -- -- 60
2019-07-23 14:00:00 26.5 9 Noroeste 35 Este 0 -- -- 40
2019-07-23 13:00:00 24.8 14 Oeste 51 Oeste 0 -- -- 55
2019-07-23 12:00:00 22.3 13 Oeste 29 Oeste 0 -- -- 57
2019-07-23 11:00:00 24.8 16 Oeste 44 Este 0 -- -- 49
2019-07-23 10:00:00 23.7 10 Oeste 22 Este 0 -- -- 37
2019-07-23 09:00:00 17.4 8 Oeste 12 Este 0 -- -- 69
2019-07-23 08:00:00 16.2 7 Noroeste 14 Oeste 0 -- -- 66
2019-07-23 07:00:00 17.3 5 Este 14 Este 0 -- -- 23
2019-07-23 06:00:00 16.8 6 Este 13 Este 0 -- -- 24
2019-07-23 05:00:00 16.2 8 Este 12 Este 0 -- -- 27
2019-07-23 04:00:00 16 6 Este 11 Este 0 -- -- 30
2019-07-23 03:00:00 17.1 6 Este 13 Sudeste 0 -- -- 28
2019-07-23 02:00:00 16.1 3 Norte 13 Este 0 -- -- 55
2019-07-23 01:00:00 16.8 5 Este 9 Este 0 -- -- 42
2019-07-23 00:00:00 17.8 7 Este 10 Este 0 -- -- 39
2019-07-22 23:00:00 18.1 5 Nordeste 14 Este 0 -- -- 53
2019-07-22 22:00:00 18.8 3 Oeste 6 Oeste 0 -- -- 75
2019-07-22 21:00:00 21.2 4 Oeste 14 Oeste 0 -- -- 68
2019-07-22 20:00:00 23.5 4 Noroeste 15 Oeste 0 -- -- 58
2019-07-22 19:00:00 24.6 10 Oeste 22 Oeste 0 -- -- 57
2019-07-22 18:00:00 24.8 13 Oeste 21 Oeste 0 -- -- 55
2019-07-22 17:00:00 24.4 11 Oeste 23 Oeste 0 -- -- 58
2019-07-22 16:00:00 25.3 13 Oeste 23 Oeste 0 -- -- 56
2019-07-22 15:00:00 24.3 11 Oeste 21 Oeste 0 -- -- 57
2019-07-22 14:00:00 25 10 Oeste 20 Oeste 0 -- -- 54
2019-07-22 13:00:00 26.8 11 Oeste 18 Oeste 0 -- -- 44
2019-07-22 12:00:00 27.1 10 Oeste 17 Oeste 0 -- -- 35
2019-07-22 11:00:00 25.9 8 Oeste 14 Oeste 0 -- -- 40
2019-07-22 10:00:00 26.6 3 Sudoeste 9 Este 0 -- -- 28
2019-07-22 09:00:00 20.5 5 Este 10 Este 0 -- -- 35
2019-07-22 08:00:00 17.2 6 Sudeste 11 Este 0 -- -- 37
2019-07-22 07:00:00 17.2 6 Este 8 Este 0 -- -- 38
2019-07-22 06:00:00 18 5 Este 11 Este 0 -- -- 36
2019-07-22 05:00:00 17.6 6 Este 8 Este 0 -- -- 35
2019-07-22 04:00:00 18 4 Este 12 Nordeste 0 -- -- 35
2019-07-22 03:00:00 17.8 3 Este 13 Este 0 -- -- 38
2019-07-22 02:00:00 19.5 5 Este 13 Este 0 -- -- 34
2019-07-22 01:00:00 20.3 6 Este 22 Este 0 -- -- 34
2019-07-22 00:00:00 18.1 3 Este 11 Este 0 -- -- 54
2019-07-21 23:00:00 20.1 4 Noroeste 22 Nordeste 0 -- -- 72
2019-07-21 22:00:00 23.5 14 Este 27 Este 0 -- -- 36
2019-07-21 21:00:00 21.7 5 Norte 16 Oeste 0 -- -- 68
2019-07-21 20:00:00 23.8 12 Oeste 21 Noroeste 0 -- -- 63
2019-07-21 19:00:00 24 12 Oeste 20 Oeste 0 -- -- 59
2019-07-21 18:00:00 23.5 14 Oeste 29 Oeste 0 -- -- 63
2019-07-21 17:00:00 23.7 18 Oeste 27 Oeste 0 -- -- 62
2019-07-21 16:00:00 24 17 Oeste 27 Oeste 0 -- -- 61
2019-07-21 15:00:00 24.4 18 Oeste 28 Noroeste 0 -- -- 56
2019-07-21 14:00:00 24.2 19 Oeste 55 Sudeste 0 -- -- 58
2019-07-21 13:00:00 24.8 15 Oeste 31 Oeste 0 -- -- 55
2019-07-21 12:00:00 24 13 Oeste 27 Nordeste 0 -- -- 56
2019-07-21 11:00:00 27.6 14 Este 34 Este 0 -- -- 19
2019-07-21 10:00:00 25 5 Noroeste 20 Este 0 -- -- 29
2019-07-21 09:00:00 18.3 3 Noroeste 21 Sudeste 0 -- -- 55
2019-07-21 08:00:00 15.5 5 Este 24 Sudeste 0 -- -- 44
2019-07-21 07:00:00 15.5 3 Nordeste 8 Norte 0 -- -- 64
2019-07-21 06:00:00 19 8 Nordeste 26 Sudeste 0 -- -- 32
2019-07-21 05:00:00 20.9 13 Este 29 Este 0 -- -- 25
2019-07-21 04:00:00 18.9 9 Norte 38 Sudeste 0 -- -- 59
2019-07-21 03:00:00 16.5 22 Sudeste 43 Sudeste 0 -- -- 73
2019-07-21 02:00:00 16.7 22 Sudeste 42 Este 0 -- -- 75
2019-07-21 01:00:00 16.1 21 Este 56 Este 0 -- -- 79
2019-07-21 00:00:00 16.2 27 Sudeste 54 Sudeste 0 -- -- 83
2019-07-20 23:00:00 16.4 25 Sudeste 46 Este 0 -- -- 83
2019-07-20 22:00:00 17.1 20 Sudeste 44 Este 0 -- -- 80
2019-07-20 21:00:00 18 18 Este 45 Sudeste 0 -- -- 75
2019-07-20 20:00:00 19.9 14 Este 54 Este 0 -- -- 70
2019-07-20 19:00:00 19.4 30 Este 52 Este 0 -- -- 76
2019-07-20 18:00:00 20.3 30 Este 60 Este 0 -- -- 71
2019-07-20 17:00:00 20 31 Este 58 Este 0 -- -- 75
2019-07-20 16:00:00 21.5 33 Este 56 Sudeste 0 -- -- 64
2019-07-20 15:00:00 21.2 32 Este 57 Este 0 -- -- 67
2019-07-20 14:00:00 20.7 35 Este 64 Este 0 -- -- 68
2019-07-20 13:00:00 20.1 35 Este 61 Este 0 -- -- 71
2019-07-20 12:00:00 19.8 36 Este 61 Este 0 -- -- 71
2019-07-20 11:00:00 19.1 33 Este 64 Sudeste 0 -- -- 69
2019-07-20 10:00:00 17.6 36 Este 55 Sudeste 0 -- -- 75
2019-07-20 09:00:00 16.1 32 Sudeste 62 Sudeste 0 -- -- 83
2019-07-20 08:00:00 15.5 34 Este 60 Este 0 -- -- 90
2019-07-20 07:00:00 16.2 24 Sudeste 50 Sudeste 0 -- -- 80
2019-07-20 06:00:00 16.5 26 Sudeste 45 Sudeste 0 -- -- 78
2019-07-20 05:00:00 16.9 26 Sudeste 50 Sudeste 0 -- -- 74
2019-07-20 04:00:00 17.1 26 Sudeste 56 Sudeste 0 -- -- 70
2019-07-20 03:00:00 16 36 Sudeste 58 Este 0 -- -- 78
2019-07-20 02:00:00 16.2 31 Este 51 Este 0 -- -- 76
2019-07-20 01:00:00 17.9 24 Sudeste 51 Sudeste 0 -- -- 58
2019-07-20 00:00:00 16.9 31 Sudeste 57 Sudeste 0 -- -- 69
2019-07-19 23:00:00 17.6 21 Este 38 Este 0 -- -- 61
2019-07-19 22:00:00 17.2 6 Este 16 Este 0 -- -- 71
2019-07-19 21:00:00 18.4 17 Este 41 Este 0 -- -- 69
2019-07-19 20:00:00 20.2 10 Sudeste 34 Este 0 -- -- 61
2019-07-19 19:00:00 21.4 19 Este 38 Este 0 -- -- 57
2019-07-19 18:00:00 22.5 22 Este 48 Sudeste 0 -- -- 56
2019-07-19 17:00:00 23.2 17 Este 33 Este 0 -- -- 60
2019-07-19 16:00:00 23.6 9 Este 39 Este 0 -- -- 61
2019-07-19 15:00:00 22.5 23 Este 56 Este 0 -- -- 60
2019-07-19 14:00:00 21.3 29 Este 48 Sudeste 0 -- -- 63
2019-07-19 13:00:00 22 17 Sudeste 39 Sudeste 0 -- -- 60
2019-07-19 12:00:00 22.5 12 Sudeste 31 Este 0 -- -- 60
2019-07-19 11:00:00 20.1 10 Oeste 19 Oeste 0 -- -- 63
2019-07-19 10:00:00 18.9 9 Oeste 18 Oeste 0 -- -- 69
2019-07-19 09:00:00 15.3 3 Norte 13 Oeste 0 -- -- 79
2019-07-19 08:00:00 11.9 5 Nordeste 10 Sudeste 0 -- -- 83
2019-07-19 07:00:00 12 4 Este 8 Nordeste 0 -- -- 80
2019-07-19 06:00:00 12.7 4 Este 28 Este 0 -- -- 79
2019-07-19 05:00:00 12.3 6 Este 11 Este 0 -- -- 84
2019-07-19 04:00:00 13.6 3 Este 9 Noroeste 0 -- -- 86
2019-07-19 03:00:00 14.8 8 Nordeste 33 Nordeste 0 -- -- 78
2019-07-19 02:00:00 14.1 4 Nordeste 10 Sudoeste 0 -- -- 85
2019-07-19 01:00:00 14.4 2 Este 8 Oeste 0 -- -- 83
2019-07-19 00:00:00 15.6 5 Noroeste 10 Noroeste 0 -- -- 85